createdAt,value
2018-11-28T00:00:31.290Z,33.85
2018-11-28T00:03:02.521Z,34.53
2018-11-28T00:05:30.818Z,33.87
2018-11-28T00:07:59.189Z,33.77
2018-11-28T00:10:27.393Z,33.65
2018-11-28T00:12:55.666Z,30.07
2018-11-28T00:15:23.864Z,36.00
2018-11-28T00:17:52.180Z,35.60
2018-11-28T00:20:21.399Z,37.93
2018-11-28T00:22:49.611Z,33.23
2018-11-28T00:25:18.448Z,30.03
2018-11-28T00:27:46.674Z,33.77
2018-11-28T00:30:20.739Z,31.35
2018-11-28T00:32:48.951Z,36.00
2018-11-28T00:35:18.260Z,33.63
2018-11-28T00:37:46.490Z,37.05
2018-11-28T00:40:15.974Z,33.93
2018-11-28T00:42:44.225Z,36.58
2018-11-28T00:45:15.259Z,34.53
2018-11-28T00:47:43.517Z,33.13
2018-11-28T00:50:12.847Z,32.83
2018-11-28T00:52:41.053Z,35.35
2018-11-28T00:55:12.259Z,35.87
2018-11-28T00:57:40.521Z,36.23
2018-11-28T01:00:12.091Z,38.83
2018-11-28T01:02:40.306Z,32.67
2018-11-28T01:05:09.811Z,35.80
2018-11-28T01:07:38.026Z,38.60
2018-11-28T01:10:10.043Z,35.80
2018-11-28T01:12:38.329Z,43.70
2018-11-28T01:15:07.771Z,31.20
2018-11-28T01:17:35.995Z,34.07
2018-11-28T01:20:05.153Z,34.83
2018-11-28T01:22:33.360Z,39.18
2018-11-28T01:25:01.517Z,36.95
2018-11-28T01:27:29.740Z,35.90
2018-11-28T01:29:57.903Z,38.33
2018-11-28T01:32:26.106Z,40.03
2018-11-28T01:34:54.323Z,35.33
2018-11-28T01:37:22.525Z,35.83
2018-11-28T01:39:50.760Z,41.73
2018-11-28T01:42:18.933Z,46.07
2018-11-28T01:44:47.089Z,37.00
2018-11-28T01:47:15.370Z,37.25
2018-11-28T01:49:43.550Z,44.13
2018-11-28T01:52:11.763Z,42.53
2018-11-28T01:54:39.959Z,41.42
2018-11-28T01:57:08.126Z,40.10
2018-11-28T01:59:36.285Z,42.27
2018-11-28T02:02:04.527Z,46.15
2018-11-28T02:04:32.706Z,46.77
2018-11-28T02:07:00.961Z,38.20
2018-11-28T02:09:29.138Z,44.50
2018-11-28T02:11:57.322Z,42.23
2018-11-28T02:14:25.551Z,46.23
2018-11-28T02:16:53.883Z,34.78
2018-11-28T02:19:22.055Z,39.10
2018-11-28T02:21:50.214Z,48.37
2018-11-28T02:24:18.470Z,42.23
2018-11-28T02:26:46.653Z,37.77
2018-11-28T02:29:14.857Z,44.57
2018-11-28T02:31:43.013Z,39.95
2018-11-28T02:34:11.176Z,43.97
2018-11-28T02:36:39.403Z,42.73
2018-11-28T02:39:09.299Z,43.13
2018-11-28T02:41:37.468Z,42.17
2018-11-28T02:44:06.613Z,38.10
2018-11-28T02:46:34.783Z,37.50
2018-11-28T02:49:02.962Z,36.70
2018-11-28T02:51:31.121Z,44.97
2018-11-28T02:53:59.339Z,42.73
2018-11-28T02:56:27.571Z,40.03
2018-11-28T02:58:55.840Z,38.97
2018-11-28T03:01:24.014Z,36.07
2018-11-28T03:03:52.396Z,41.63
2018-11-28T03:06:20.521Z,40.97
2018-11-28T03:08:48.712Z,41.43
2018-11-28T03:11:16.893Z,41.95
2018-11-28T03:13:45.084Z,33.50
2018-11-28T03:16:18.057Z,41.70
2018-11-28T03:18:46.666Z,43.93
2018-11-28T03:21:14.995Z,39.42
2018-11-28T03:23:43.175Z,41.53
2018-11-28T03:26:11.348Z,36.43
2018-11-28T03:28:39.490Z,37.77
2018-11-28T03:31:07.626Z,41.53
2018-11-28T03:33:35.828Z,39.67
2018-11-28T03:36:04.099Z,36.20
2018-11-28T03:38:32.382Z,39.07
2018-11-28T03:41:00.566Z,37.00
2018-11-28T03:43:28.731Z,40.83
2018-11-28T03:45:56.947Z,37.90
2018-11-28T03:48:30.900Z,41.08
2018-11-28T03:51:00.671Z,36.93
2018-11-28T03:53:27.340Z,42.23
2018-11-28T03:55:55.545Z,43.78
2018-11-28T03:58:23.787Z,42.47
2018-11-28T04:00:52.006Z,40.97
2018-11-28T04:03:20.190Z,38.20
2018-11-28T04:05:48.428Z,40.67
2018-11-28T04:08:16.635Z,31.70
2018-11-28T04:10:44.830Z,37.45
2018-11-28T04:13:13.042Z,32.93
2018-11-28T04:15:41.369Z,43.07
2018-11-28T04:18:09.553Z,45.17
2018-11-28T04:20:37.821Z,47.83
2018-11-28T04:23:06.005Z,35.70
2018-11-28T04:25:34.943Z,39.65
2018-11-28T04:28:03.147Z,39.73
2018-11-28T04:30:38.392Z,46.00
2018-11-28T04:33:06.593Z,33.93
2018-11-28T04:35:34.825Z,30.43
2018-11-28T04:38:03.028Z,42.95
2018-11-28T04:40:31.230Z,40.13
2018-11-28T04:43:09.126Z,45.27
2018-11-28T04:45:37.381Z,43.77
2018-11-28T04:48:07.722Z,40.63
2018-11-28T04:50:40.088Z,38.93
2018-11-28T04:53:08.266Z,41.03
2018-11-28T04:55:36.458Z,41.43
2018-11-28T04:58:04.692Z,39.65
2018-11-28T05:00:37.509Z,38.97
2018-11-28T05:03:06.201Z,39.90
2018-11-28T05:05:34.487Z,40.73
2018-11-28T05:08:09.603Z,38.00
2018-11-28T05:10:37.820Z,45.20
2018-11-28T05:13:07.068Z,36.70
2018-11-28T05:15:35.301Z,41.00
2018-11-28T05:18:03.572Z,37.40
2018-11-28T05:20:35.299Z,37.83
2018-11-28T05:23:04.707Z,37.97
2018-11-28T05:25:33.813Z,37.00
2018-11-28T05:28:02.106Z,38.13
2018-11-28T05:30:31.170Z,34.50
2018-11-28T05:32:59.485Z,39.53
2018-11-28T05:35:36.325Z,34.93
2018-11-28T05:38:16.883Z,29.77
2018-11-28T05:40:48.301Z,34.13
2018-11-28T05:43:17.785Z,32.07
2018-11-28T05:45:48.086Z,32.07
2018-11-28T05:48:19.899Z,32.00
2018-11-28T05:50:48.130Z,32.33
2018-11-28T05:53:16.485Z,33.57
2018-11-28T05:55:44.750Z,35.13
2018-11-28T05:58:12.931Z,30.80
2018-11-28T06:00:41.935Z,31.57
2018-11-28T06:03:10.999Z,30.97
2018-11-28T06:05:40.096Z,34.73
2018-11-28T06:08:10.450Z,31.33
2018-11-28T06:10:38.691Z,32.50
2018-11-28T06:13:06.904Z,32.77
2018-11-28T06:15:35.057Z,32.03
2018-11-28T06:18:03.329Z,31.53
2018-11-28T06:20:31.614Z,36.07
2018-11-28T06:23:00.188Z,31.30
2018-11-28T06:25:28.367Z,33.93
2018-11-28T06:27:56.578Z,30.13
2018-11-28T06:30:24.817Z,30.17
2018-11-28T06:32:53.126Z,32.17
2018-11-28T06:35:21.471Z,32.47
2018-11-28T06:37:49.762Z,35.38
2018-11-28T06:40:23.587Z,35.60
2018-11-28T06:42:47.526Z,31.87
2018-11-28T06:45:16.981Z,31.30
2018-11-28T06:47:45.229Z,32.43
2018-11-28T06:50:17.435Z,32.37
2018-11-28T06:52:46.782Z,35.60
2018-11-28T06:55:15.929Z,26.33
2018-11-28T06:57:44.098Z,28.80
2018-11-28T07:00:13.647Z,31.03
2018-11-28T07:02:42.196Z,31.80
2018-11-28T07:05:11.160Z,31.20
2018-11-28T07:07:39.381Z,29.12
2018-11-28T07:10:10.065Z,28.17
2018-11-28T07:12:46.327Z,30.77
2018-11-28T07:15:15.650Z,30.50
2018-11-28T07:17:44.101Z,31.73
2018-11-28T07:20:14.254Z,34.13
2018-11-28T07:22:42.454Z,32.70
2018-11-28T07:25:12.638Z,32.10
2018-11-28T07:27:44.995Z,31.10
2018-11-28T07:30:13.749Z,28.93
2018-11-28T07:32:42.020Z,33.87
2018-11-28T07:35:10.972Z,27.40
2018-11-28T07:37:39.253Z,28.00
2018-11-28T07:40:11.960Z,29.82
2018-11-28T07:42:48.833Z,28.20
2018-11-28T07:45:21.146Z,29.13
2018-11-28T07:47:49.326Z,23.40
2018-11-28T07:50:17.541Z,27.47
2018-11-28T07:52:45.789Z,27.40
2018-11-28T07:55:14.062Z,27.80
2018-11-28T07:57:42.644Z,26.37
2018-11-28T08:00:13.626Z,27.97
2018-11-28T08:02:42.119Z,26.17
2018-11-28T08:05:11.133Z,27.90
2018-11-28T08:07:39.445Z,24.92
2018-11-28T08:10:10.489Z,32.27
2018-11-28T08:12:38.799Z,25.30
2018-11-28T08:15:08.252Z,29.10
2018-11-28T08:17:36.489Z,28.10
2018-11-28T08:20:04.878Z,24.93
2018-11-28T08:22:36.540Z,27.40
2018-11-28T08:25:05.059Z,25.97
2018-11-28T08:27:33.045Z,31.80
2018-11-28T08:30:01.319Z,25.12
2018-11-28T08:32:29.531Z,28.90
2018-11-28T08:34:57.786Z,28.00
2018-11-28T08:37:26.055Z,29.23
2018-11-28T08:39:54.257Z,25.93
2018-11-28T08:42:22.562Z,30.97
2018-11-28T08:44:50.779Z,27.30
2018-11-28T08:47:19.007Z,24.47
2018-11-28T08:49:47.268Z,22.47
2018-11-28T08:52:15.628Z,24.52
2018-11-28T08:54:43.821Z,26.17
2018-11-28T08:57:12.069Z,27.23
2018-11-28T08:59:40.366Z,30.55
2018-11-28T09:02:08.634Z,23.27
2018-11-28T09:04:36.849Z,27.57
2018-11-28T09:07:05.233Z,28.87
2018-11-28T09:09:33.509Z,29.80
2018-11-28T09:12:02.061Z,24.17
2018-11-28T09:14:30.383Z,25.93
2018-11-28T09:16:58.646Z,28.77
2018-11-28T09:19:26.983Z,29.23
2018-11-28T09:21:55.551Z,26.10
2018-11-28T09:24:23.759Z,28.50
2018-11-28T09:26:52.050Z,28.03
2018-11-28T09:29:20.306Z,27.93
2018-11-28T09:31:48.792Z,28.27
2018-11-28T09:34:17.067Z,26.10
2018-11-28T09:36:45.255Z,27.07
2018-11-28T09:39:15.666Z,27.67
2018-11-28T09:41:43.956Z,23.97
2018-11-28T09:44:12.230Z,29.43
2018-11-28T09:46:40.436Z,26.82
2018-11-28T09:49:08.678Z,23.07
2018-11-28T09:51:36.922Z,27.60
2018-11-28T09:54:05.933Z,25.32
2018-11-28T09:56:34.215Z,24.43
2018-11-28T09:59:02.439Z,23.10
2018-11-28T10:01:30.752Z,14.03
2018-11-28T10:03:58.936Z,27.13
2018-11-28T10:06:27.132Z,24.03
2018-11-28T10:08:55.520Z,24.45
2018-11-28T10:11:23.750Z,22.80
2018-11-28T10:13:51.993Z,24.50
2018-11-28T10:16:20.180Z,24.02
2018-11-28T10:18:51.765Z,23.37
2018-11-28T10:21:19.975Z,21.80
2018-11-28T10:23:48.179Z,21.53
2018-11-28T10:26:16.475Z,23.18
2018-11-28T10:28:44.736Z,23.17
2018-11-28T10:31:12.918Z,21.87
2018-11-28T10:33:41.188Z,20.25
2018-11-28T10:36:09.371Z,20.73
2018-11-28T10:38:37.632Z,20.43
2018-11-28T10:41:06.327Z,23.25
2018-11-28T10:43:34.528Z,21.93
2018-11-28T10:46:02.828Z,23.53
2018-11-28T10:48:31.057Z,20.37
2018-11-28T10:51:04.400Z,23.30
2018-11-28T10:53:33.677Z,21.83
2018-11-28T10:56:01.866Z,22.93
2018-11-28T10:58:33.935Z,20.10
2018-11-28T11:01:07.495Z,23.93
2018-11-28T11:03:41.219Z,25.80
2018-11-28T11:06:15.010Z,21.83
2018-11-28T11:08:48.683Z,23.27
2018-11-28T11:11:23.777Z,26.27
2018-11-28T11:14:56.561Z,23.13
2018-11-28T11:17:24.806Z,25.03
2018-11-28T11:19:53.082Z,22.93
2018-11-28T11:22:21.368Z,28.05
2018-11-28T11:24:49.635Z,20.07
2018-11-28T11:27:17.880Z,22.93
2018-11-28T11:29:46.111Z,22.95
2018-11-28T11:32:14.427Z,22.87
2018-11-28T11:34:42.637Z,23.57
2018-11-28T11:37:10.908Z,18.98
2018-11-28T11:39:39.393Z,24.07
2018-11-28T11:42:07.860Z,25.82
2018-11-28T11:44:36.165Z,27.43
2018-11-28T11:47:04.531Z,25.35
2018-11-28T11:49:32.875Z,20.77
2018-11-28T11:52:01.062Z,25.80
2018-11-28T11:54:29.267Z,23.70
2018-11-28T11:56:57.756Z,27.20
2018-11-28T11:59:26.028Z,24.15
2018-11-28T12:01:54.917Z,23.07
2018-11-28T12:04:22.895Z,25.10
2018-11-28T12:06:51.180Z,24.50
2018-11-28T12:09:19.410Z,18.70
2018-11-28T12:11:47.589Z,21.52
2018-11-28T12:14:15.846Z,19.73
2018-11-28T12:16:44.101Z,21.50
2018-11-28T12:19:18.285Z,24.50
2018-11-28T12:21:46.585Z,19.93
2018-11-28T12:24:27.406Z,20.68
2018-11-28T12:26:57.850Z,22.13
2018-11-28T12:29:26.125Z,21.20
2018-11-28T12:31:54.346Z,19.53
2018-11-28T12:34:22.568Z,19.45
2018-11-28T12:36:50.907Z,14.27
2018-11-28T12:39:24.909Z,17.25
2018-11-28T12:41:53.134Z,18.23
2018-11-28T12:44:21.289Z,17.13
2018-11-28T12:46:49.583Z,18.25
2018-11-28T12:49:18.132Z,16.70
2018-11-28T12:51:46.422Z,16.75
2018-11-28T12:54:14.689Z,19.53
2018-11-28T12:56:42.920Z,16.67
2018-11-28T12:59:19.474Z,19.87
2018-11-28T13:01:47.754Z,21.03
2018-11-28T13:04:16.055Z,15.93
2018-11-28T13:06:44.359Z,17.80
2018-11-28T13:09:12.613Z,18.47
2018-11-28T13:11:40.913Z,15.97
2018-11-28T13:14:09.149Z,16.82
2018-11-28T13:16:37.391Z,16.77
2018-11-28T13:19:05.818Z,16.33
2018-11-28T13:21:34.107Z,17.77
2018-11-28T13:24:02.577Z,16.27
2018-11-28T13:26:30.825Z,17.55
2018-11-28T13:29:09.177Z,16.32
2018-11-28T13:31:37.418Z,16.53
2018-11-28T13:34:09.128Z,17.93
2018-11-28T13:36:37.575Z,14.70
2018-11-28T13:39:06.854Z,18.07
2018-11-28T13:41:35.151Z,15.43
2018-11-28T13:44:03.469Z,17.47
2018-11-28T13:46:50.200Z,16.17
2018-11-28T13:49:18.478Z,11.07
2018-11-28T13:51:46.620Z,15.53
2018-11-28T13:54:21.280Z,17.35
2018-11-28T13:57:00.655Z,17.40
2018-11-28T13:59:23.703Z,17.87
2018-11-28T14:02:05.406Z,18.50
2018-11-28T14:04:39.196Z,15.53
2018-11-28T14:07:15.620Z,15.60
2018-11-28T14:09:43.886Z,17.90
2018-11-28T14:12:12.129Z,18.77
2018-11-28T14:14:40.569Z,20.05
2018-11-28T14:17:08.626Z,18.77
2018-11-28T14:19:42.029Z,17.53
2018-11-28T14:22:10.411Z,22.37
2018-11-28T14:24:38.670Z,18.23
2018-11-28T14:27:06.925Z,18.62
2018-11-28T14:29:35.366Z,19.83
2018-11-28T14:32:03.684Z,17.02
2018-11-28T14:34:32.052Z,16.60
2018-11-28T14:37:00.417Z,17.10
2018-11-28T14:39:28.593Z,17.93
2018-11-28T14:41:56.883Z,17.67
2018-11-28T14:44:25.162Z,17.10
2018-11-28T14:46:53.437Z,13.27
2018-11-28T14:49:21.596Z,18.07
2018-11-28T14:51:49.812Z,15.63
2018-11-28T14:54:18.075Z,17.30
2018-11-28T14:56:46.290Z,17.70
2018-11-28T14:59:14.475Z,15.32
2018-11-28T15:01:42.659Z,17.37
2018-11-28T15:04:10.850Z,17.60
2018-11-28T15:06:49.537Z,16.20
2018-11-28T15:09:23.239Z,17.00
2018-11-28T15:11:51.432Z,16.90
2018-11-28T15:14:23.995Z,15.93
2018-11-28T15:16:52.816Z,18.30
2018-11-28T15:19:20.536Z,19.03
2018-11-28T15:21:48.816Z,14.87
2018-11-28T15:24:17.023Z,13.00
2018-11-28T15:26:45.277Z,15.83
2018-11-28T15:29:13.538Z,17.62
2018-11-28T15:31:41.835Z,17.37
2018-11-28T15:34:10.022Z,16.00
2018-11-28T15:36:38.173Z,14.55
2018-11-28T15:39:08.678Z,14.23
2018-11-28T15:41:37.823Z,12.87
2018-11-28T15:44:06.040Z,16.43
2018-11-28T15:46:34.347Z,16.47
2018-11-28T15:49:02.616Z,16.42
2018-11-28T15:51:30.817Z,16.90
2018-11-28T15:53:59.107Z,16.53
2018-11-28T15:56:27.295Z,14.23
2018-11-28T15:58:55.515Z,16.90
2018-11-28T16:01:23.810Z,16.57
2018-11-28T16:03:52.183Z,15.20
2018-11-28T16:06:20.487Z,14.93
2018-11-28T16:08:52.965Z,15.10
2018-11-28T16:11:21.480Z,27.33
2018-11-28T16:13:49.747Z,16.62
2018-11-28T16:16:18.095Z,17.27
2018-11-28T16:18:46.353Z,17.67
2018-11-28T16:21:14.630Z,14.87
2018-11-28T16:23:42.913Z,17.07
2018-11-28T16:26:11.201Z,16.42
2018-11-28T16:28:39.454Z,21.23
2018-11-28T16:31:07.735Z,18.13
2018-11-28T16:33:36.005Z,16.12
2018-11-28T16:36:04.367Z,15.37
2018-11-28T16:38:32.693Z,15.80
2018-11-28T16:41:01.131Z,16.30
2018-11-28T16:43:29.419Z,17.77
2018-11-28T16:45:57.726Z,15.67
2018-11-28T16:48:26.035Z,14.87
2018-11-28T16:50:54.365Z,16.42
2018-11-28T16:53:22.634Z,16.27
2018-11-28T16:55:50.931Z,16.43
2018-11-28T16:58:19.129Z,14.63
2018-11-28T17:00:47.398Z,16.73
2018-11-28T17:03:15.735Z,17.33
2018-11-28T17:05:44.175Z,18.95
2018-11-28T17:08:12.515Z,18.33
2018-11-28T17:10:40.835Z,18.65
2018-11-28T17:13:09.193Z,19.35
2018-11-28T17:15:37.471Z,20.93
2018-11-28T17:18:06.451Z,19.30
2018-11-28T17:20:34.687Z,19.55
2018-11-28T17:23:36.208Z,20.55
2018-11-28T17:26:04.943Z,22.17
2018-11-28T17:28:33.487Z,22.17
2018-11-28T17:31:01.827Z,22.43
2018-11-28T17:33:30.155Z,22.87
2018-11-28T17:35:58.561Z,22.07
2018-11-28T17:38:27.067Z,21.62
2018-11-28T17:40:55.311Z,21.20
2018-11-28T17:43:23.548Z,21.03
2018-11-28T17:45:51.934Z,21.53
2018-11-28T17:48:20.126Z,20.40
2018-11-28T17:50:48.362Z,21.80
2018-11-28T17:53:16.748Z,22.40
2018-11-28T17:55:46.600Z,24.30
2018-11-28T17:58:14.858Z,23.73
2018-11-28T18:00:43.188Z,25.17
2018-11-28T18:03:11.462Z,25.17
2018-11-28T18:05:39.777Z,25.00
2018-11-28T18:08:07.993Z,25.70
2018-11-28T18:10:36.321Z,23.02
2018-11-28T18:13:10.570Z,27.20
2018-11-28T18:15:39.737Z,27.57
2018-11-28T18:18:09.510Z,22.73
2018-11-28T18:20:37.668Z,27.97
2018-11-28T18:23:07.575Z,30.30
2018-11-28T18:25:42.631Z,33.97
2018-11-28T18:28:16.589Z,26.03
2018-11-28T18:30:45.907Z,34.57
2018-11-28T18:33:20.034Z,35.00
2018-11-28T18:35:48.209Z,34.53
2018-11-28T18:38:16.521Z,36.80
2018-11-28T18:40:44.737Z,35.73
2018-11-28T18:43:12.927Z,34.73
2018-11-28T18:45:45.066Z,40.50
2018-11-28T18:48:13.343Z,40.67
2018-11-28T18:50:41.559Z,39.23
2018-11-28T18:53:12.643Z,37.05
2018-11-28T18:55:42.474Z,41.67
2018-11-28T18:58:12.348Z,35.57
2018-11-28T19:00:41.286Z,37.03
2018-11-28T19:03:09.582Z,38.93
2018-11-28T19:05:38.953Z,45.40
2018-11-28T19:08:08.491Z,40.28
2018-11-28T19:10:38.812Z,40.03
2018-11-28T19:13:07.099Z,39.87
2018-11-28T19:15:40.800Z,34.33
2018-11-28T19:18:10.013Z,43.50
2018-11-28T19:20:38.357Z,47.20
2018-11-28T19:23:06.567Z,44.13
2018-11-28T19:25:35.094Z,42.45
2018-11-28T19:28:08.735Z,40.23
2018-11-28T19:30:39.341Z,39.67
2018-11-28T19:33:12.891Z,43.57
2018-11-28T19:35:41.100Z,41.23
2018-11-28T19:38:10.473Z,43.13
2018-11-28T19:40:47.667Z,49.88
2018-11-28T19:43:15.909Z,50.63
2018-11-28T19:45:44.090Z,58.50
2018-11-28T19:48:12.271Z,50.15
2018-11-28T19:50:40.460Z,54.17
2018-11-28T19:53:09.313Z,44.23
2018-11-28T19:55:37.818Z,57.57
2018-11-28T19:58:06.683Z,51.00
2018-11-28T20:00:34.885Z,60.30
2018-11-28T20:03:03.134Z,54.03
2018-11-28T20:05:31.334Z,50.35
2018-11-28T20:07:59.543Z,46.87
2018-11-28T20:10:27.805Z,42.90
2018-11-28T20:12:55.995Z,51.58
2018-11-28T20:15:28.245Z,49.43
2018-11-28T20:17:56.679Z,48.03
2018-11-28T20:20:24.881Z,54.18
2018-11-28T20:22:56.638Z,45.55
2018-11-28T20:25:25.232Z,54.70
2018-11-28T20:27:54.754Z,50.70
2018-11-28T20:30:29.248Z,49.03
2018-11-28T20:32:57.414Z,42.87
2018-11-28T20:35:25.598Z,48.53
2018-11-28T20:37:53.974Z,51.15
2018-11-28T20:40:22.277Z,47.80
2018-11-28T20:42:52.670Z,49.90
2018-11-28T20:45:23.082Z,50.27
2018-11-28T20:47:51.423Z,48.90
2018-11-28T20:50:22.255Z,50.70
2018-11-28T20:52:54.941Z,51.83
2018-11-28T20:55:20.579Z,48.30
2018-11-28T20:57:48.777Z,55.03
2018-11-28T21:00:18.493Z,51.60
2018-11-28T21:02:46.684Z,48.28
2018-11-28T21:05:14.972Z,48.13
2018-11-28T21:07:43.173Z,51.17
2018-11-28T21:10:17.898Z,50.60
2018-11-28T21:12:46.136Z,45.83
2018-11-28T21:15:14.328Z,45.80
2018-11-28T21:17:43.068Z,50.83
2018-11-28T21:20:13.588Z,48.47
2018-11-28T21:22:42.135Z,37.60
2018-11-28T21:25:11.304Z,49.35
2018-11-28T21:27:39.546Z,50.93
2018-11-28T21:30:13.060Z,48.20
2018-11-28T21:32:41.306Z,49.20
2018-11-28T21:35:17.932Z,51.23
2018-11-28T21:37:46.303Z,50.90
2018-11-28T21:40:14.593Z,48.00
2018-11-28T21:42:42.821Z,53.92
2018-11-28T21:45:13.403Z,44.40
2018-11-28T21:47:41.627Z,58.83
2018-11-28T21:50:19.349Z,46.57
2018-11-28T21:52:47.717Z,56.50
2018-11-28T21:55:17.846Z,62.17
2018-11-28T21:57:46.115Z,46.50
2018-11-28T22:00:24.501Z,58.23
2018-11-28T22:02:52.895Z,59.87
2018-11-28T22:05:21.402Z,57.62
2018-11-28T22:07:49.637Z,57.43
2018-11-28T22:10:22.706Z,42.60
2018-11-28T22:12:50.936Z,53.97
2018-11-28T22:15:19.326Z,66.63
2018-11-28T22:17:51.844Z,56.98
2018-11-28T22:20:20.417Z,63.53
2018-11-28T22:22:48.719Z,54.55
2018-11-28T22:25:25.721Z,57.47
2018-11-28T22:27:54.159Z,61.50
2018-11-28T22:30:24.530Z,47.98
2018-11-28T22:32:52.952Z,50.70
2018-11-28T22:35:21.268Z,48.48
2018-11-28T22:37:49.815Z,51.43
2018-11-28T22:40:20.875Z,53.33
2018-11-28T22:42:49.573Z,49.57
2018-11-28T22:45:18.775Z,50.80
2018-11-28T22:47:47.251Z,47.63
2018-11-28T22:50:15.426Z,47.67
2018-11-28T22:52:43.695Z,49.13
2018-11-28T22:55:12.925Z,52.73
2018-11-28T22:57:41.119Z,44.77
2018-11-28T23:00:31.200Z,49.77
2018-11-28T23:03:02.255Z,44.37
2018-11-28T23:05:36.222Z,49.93
2018-11-28T23:08:06.263Z,43.73
2018-11-28T23:10:34.515Z,45.23
2018-11-28T23:13:02.933Z,50.97
2018-11-28T23:15:31.195Z,49.38
2018-11-28T23:17:59.405Z,50.40
2018-11-28T23:20:27.634Z,45.93
2018-11-28T23:22:55.990Z,49.45
2018-11-28T23:25:24.286Z,46.60
2018-11-28T23:27:55.127Z,50.57
2018-11-28T23:30:23.308Z,47.40
2018-11-28T23:32:53.671Z,46.07
2018-11-28T23:35:22.279Z,50.60
2018-11-28T23:37:50.535Z,45.15
2018-11-28T23:40:21.480Z,49.27
2018-11-28T23:42:49.928Z,49.40
2018-11-28T23:45:18.199Z,43.13
2018-11-28T23:47:46.431Z,45.63
2018-11-28T23:50:20.280Z,44.83
2018-11-28T23:52:48.923Z,45.47
2018-11-28T23:55:21.998Z,46.20
2018-11-28T23:57:50.200Z,45.13
